sensor_id;sensor_type;location;lat;lon;timestamp;pressure;altitude;pressure_sealevel;temperature;humidity
63652;BME280;68011;37.386;-122.002;2023-03-05T00:00:16;101085.03;;;11.63;51.37
63652;BME280;68011;37.386;-122.002;2023-03-05T00:00:43;101079.78;;;11.61;52.04
63652;BME280;68011;37.386;-122.002;2023-03-05T00:01:14;101083.53;;;11.60;52.12
63652;BME280;68011;37.386;-122.002;2023-03-05T00:01:41;101084.03;;;11.64;52.58
63652;BME280;68011;37.386;-122.002;2023-03-05T00:02:08;101080.81;;;11.60;52.48
63652;BME280;68011;37.386;-122.002;2023-03-05T00:02:34;101076.88;;;11.63;52.49
63652;BME280;68011;37.386;-122.002;2023-03-05T00:03:00;101091.63;;;11.69;53.44
63652;BME280;68011;37.386;-122.002;2023-03-05T00:03:26;101080.97;;;11.59;52.01
63652;BME280;68011;37.386;-122.002;2023-03-05T00:03:56;101085.91;;;11.55;51.33
63652;BME280;68011;37.386;-122.002;2023-03-05T00:04:22;101079.09;;;11.51;52.02
63652;BME280;68011;37.386;-122.002;2023-03-05T00:04:48;101078.44;;;11.57;51.92
63652;BME280;68011;37.386;-122.002;2023-03-05T00:05:15;101077.94;;;11.54;52.22
63652;BME280;68011;37.386;-122.002;2023-03-05T00:05:41;101076.22;;;11.53;52.35
63652;BME280;68011;37.386;-122.002;2023-03-05T00:06:07;101083.34;;;11.54;52.34
63652;BME280;68011;37.386;-122.002;2023-03-05T00:06:34;101080.81;;;11.52;51.64
63652;BME280;68011;37.386;-122.002;2023-03-05T00:07:00;101079.09;;;11.51;51.50
63652;BME280;68011;37.386;-122.002;2023-03-05T00:07:26;101075.56;;;11.42;51.44
63652;BME280;68011;37.386;-122.002;2023-03-05T00:07:52;101080.31;;;11.49;51.95
63652;BME280;68011;37.386;-122.002;2023-03-05T00:08:18;101072.84;;;11.42;52.19
63652;BME280;68011;37.386;-122.002;2023-03-05T00:08:45;101076.75;;;11.40;52.94
63652;BME280;68011;37.386;-122.002;2023-03-05T00:09:11;101078.25;;;11.34;52.55
63652;BME280;68011;37.386;-122.002;2023-03-05T00:09:37;101068.41;;;11.41;52.65
63652;BME280;68011;37.386;-122.002;2023-03-05T00:10:04;101077.59;;;11.40;52.18
63652;BME280;68011;37.386;-122.002;2023-03-05T00:10:30;101078.09;;;11.27;51.23
63652;BME280;68011;37.386;-122.002;2023-03-05T00:11:00;101078.94;;;11.28;52.00
63652;BME280;68011;37.386;-122.002;2023-03-05T00:11:28;101078.09;;;11.36;51.67
63652;BME280;68011;37.386;-122.002;2023-03-05T00:11:55;101080.31;;;11.40;51.76
63652;BME280;68011;37.386;-122.002;2023-03-05T00:12:21;101078.63;;;11.31;51.25
63652;BME280;68011;37.386;-122.002;2023-03-05T00:12:47;101080.28;;;11.24;51.27
63652;BME280;68011;37.386;-122.002;2023-03-05T00:13:14;101068.59;;;11.23;51.82
63652;BME280;68011;37.386;-122.002;2023-03-05T00:13:40;101073.19;;;11.23;51.87
63652;BME280;68011;37.386;-122.002;2023-03-05T00:14:06;101074.19;;;11.30;51.88
63652;BME280;68011;37.386;-122.002;2023-03-05T00:14:32;101083.00;;;11.32;52.27
63652;BME280;68011;37.386;-122.002;2023-03-05T00:14:59;101077.25;;;11.35;52.36
63652;BME280;68011;37.386;-122.002;2023-03-05T00:15:25;101073.34;;;11.38;52.48
63652;BME280;68011;37.386;-122.002;2023-03-05T00:15:51;101069.13;;;11.43;52.14
63652;BME280;68011;37.386;-122.002;2023-03-05T00:16:18;101063.88;;;11.42;52.08
63652;BME280;68011;37.386;-122.002;2023-03-05T00:16:45;101067.75;;;11.48;51.75
63652;BME280;68011;37.386;-122.002;2023-03-05T00:17:11;101076.91;;;11.30;50.57
63652;BME280;68011;37.386;-122.002;2023-03-05T00:17:37;101072.16;;;11.32;51.59
63652;BME280;68011;37.386;-122.002;2023-03-05T00:18:03;101073.19;;;11.31;51.87
63652;BME280;68011;37.386;-122.002;2023-03-05T00:18:30;101066.72;;;11.24;52.35
63652;BME280;68011;37.386;-122.002;2023-03-05T00:18:57;101072.50;;;11.37;52.06
63652;BME280;68011;37.386;-122.002;2023-03-05T00:19:24;101078.59;;;11.39;52.47
63652;BME280;68011;37.386;-122.002;2023-03-05T00:19:50;101077.91;;;11.37;51.88
63652;BME280;68011;37.386;-122.002;2023-03-05T00:20:16;101079.97;;;11.35;51.63
63652;BME280;68011;37.386;-122.002;2023-03-05T00:20:43;101081.66;;;11.36;51.65
63652;BME280;68011;37.386;-122.002;2023-03-05T00:21:21;101079.97;;;11.35;50.45
63652;BME280;68011;37.386;-122.002;2023-03-05T00:21:48;101079.13;;;11.35;50.70
63652;BME280;68011;37.386;-122.002;2023-03-05T00:22:14;101086.41;;;11.26;50.71
63652;BME280;68011;37.386;-122.002;2023-03-05T00:22:40;101085.72;;;11.24;50.89
63652;BME280;68011;37.386;-122.002;2023-03-05T00:23:07;101078.44;;;11.24;51.28
63652;BME280;68011;37.386;-122.002;2023-03-05T00:23:33;101074.19;;;11.30;51.51
63652;BME280;68011;37.386;-122.002;2023-03-05T00:24:01;101071.81;;;11.27;51.36
63652;BME280;68011;37.386;-122.002;2023-03-05T00:24:27;101075.22;;;11.29;52.06
63652;BME280;68011;37.386;-122.002;2023-03-05T00:24:54;101075.56;;;11.26;52.27
63652;BME280;68011;37.386;-122.002;2023-03-05T00:25:20;101077.25;;;11.27;52.30
63652;BME280;68011;37.386;-122.002;2023-03-05T00:25:47;101079.94;;;11.19;52.15
63652;BME280;68011;37.386;-122.002;2023-03-05T00:26:14;101076.06;;;11.21;51.87
63652;BME280;68011;37.386;-122.002;2023-03-05T00:26:41;101073.53;;;11.28;51.73
63652;BME280;68011;37.386;-122.002;2023-03-05T00:27:08;101072.84;;;11.34;51.93
63652;BME280;68011;37.386;-122.002;2023-03-05T00:27:34;101077.41;;;11.34;51.26
63652;BME280;68011;37.386;-122.002;2023-03-05T00:28:00;101084.03;;;11.31;51.39
63652;BME280;68011;37.386;-122.002;2023-03-05T00:28:26;101071.31;;;11.32;50.73
63652;BME280;68011;37.386;-122.002;2023-03-05T00:28:54;101073.53;;;11.28;50.07
63652;BME280;68011;37.386;-122.002;2023-03-05T00:29:21;101072.16;;;11.24;50.11
63652;BME280;68011;37.386;-122.002;2023-03-05T00:29:47;101079.94;;;11.19;50.06
63652;BME280;68011;37.386;-122.002;2023-03-05T00:30:13;101072.50;;;11.21;50.26
63652;BME280;68011;37.386;-122.002;2023-03-05T00:30:40;101075.56;;;11.18;49.86
63652;BME280;68011;37.386;-122.002;2023-03-05T00:31:06;101073.19;;;11.23;50.27
63652;BME280;68011;37.386;-122.002;2023-03-05T00:31:33;101078.94;;;11.28;50.29
63652;BME280;68011;37.386;-122.002;2023-03-05T00:32:00;101067.59;;;11.24;49.94
63652;BME280;68011;37.386;-122.002;2023-03-05T00:32:26;101070.16;;;11.26;49.51
63652;BME280;68011;37.386;-122.002;2023-03-05T00:32:53;101069.78;;;11.29;49.72
63652;BME280;68011;37.386;-122.002;2023-03-05T00:33:19;101077.41;;;11.34;49.52
63652;BME280;68011;37.386;-122.002;2023-03-05T00:33:45;101069.97;;;11.36;49.74
63652;BME280;68011;37.386;-122.002;2023-03-05T00:34:13;101069.44;;;11.32;49.41
63652;BME280;68011;37.386;-122.002;2023-03-05T00:34:40;101073.03;;;11.24;49.50
63652;BME280;68011;37.386;-122.002;2023-03-05T00:35:06;101068.09;;;11.20;49.86
63652;BME280;68011;37.386;-122.002;2023-03-05T00:35:39;101072.50;;;11.21;49.01
63652;BME280;68011;37.386;-122.002;2023-03-05T00:36:06;101062.50;;;11.21;49.63
63652;BME280;68011;37.386;-122.002;2023-03-05T00:36:33;101073.53;;;11.28;49.64
63652;BME280;68011;37.386;-122.002;2023-03-05T00:36:59;101064.03;;;11.24;49.96
63652;BME280;68011;37.386;-122.002;2023-03-05T00:37:25;101065.22;;;11.30;49.72
63652;BME280;68011;37.386;-122.002;2023-03-05T00:37:52;101069.44;;;11.32;49.99
63652;BME280;68011;37.386;-122.002;2023-03-05T00:38:18;101061.47;;;11.31;50.04
63652;BME280;68011;37.386;-122.002;2023-03-05T00:38:45;101069.78;;;11.29;50.19
63652;BME280;68011;37.386;-122.002;2023-03-05T00:39:11;101064.19;;;11.31;50.51
63652;BME280;68011;37.386;-122.002;2023-03-05T00:39:38;101067.06;;;11.37;50.43
63652;BME280;68011;37.386;-122.002;2023-03-05T00:40:04;101066.75;;;11.40;50.39
63652;BME280;68011;37.386;-122.002;2023-03-05T00:40:37;101063.00;;;11.41;50.40
63652;BME280;68011;37.386;-122.002;2023-03-05T00:41:03;101061.66;;;11.37;50.72
63652;BME280;68011;37.386;-122.002;2023-03-05T00:41:29;101067.91;;;11.38;50.96
63652;BME280;68011;37.386;-122.002;2023-03-05T00:41:56;101056.75;;;11.41;50.97
63652;BME280;68011;37.386;-122.002;2023-03-05T00:42:22;101068.09;;;11.44;50.89
63652;BME280;68011;37.386;-122.002;2023-03-05T00:42:48;101066.41;;;11.43;51.04
63652;BME280;68011;37.386;-122.002;2023-03-05T00:43:14;101065.41;;;11.36;51.28
63652;BME280;68011;37.386;-122.002;2023-03-05T00:43:41;101067.25;;;11.27;50.70
63652;BME280;68011;37.386;-122.002;2023-03-05T00:44:07;101068.09;;;11.28;50.04
63652;BME280;68011;37.386;-122.002;2023-03-05T00:44:34;101071.50;;;11.30;50.49
63652;BME280;68011;37.386;-122.002;2023-03-05T00:45:00;101074.19;;;11.22;49.85
63652;BME280;68011;37.386;-122.002;2023-03-05T00:45:26;101061.31;;;11.24;49.42
63652;BME280;68011;37.386;-122.002;2023-03-05T00:45:52;101069.78;;;11.13;49.09
63652;BME280;68011;37.386;-122.002;2023-03-05T00:46:19;101078.59;;;11.15;49.07
63652;BME280;68011;37.386;-122.002;2023-03-05T00:46:45;101063.00;;;11.17;49.43
63652;BME280;68011;37.386;-122.002;2023-03-05T00:47:11;101062.00;;;11.18;49.59
63652;BME280;68011;37.386;-122.002;2023-03-05T00:47:38;101065.72;;;11.17;49.93
63652;BME280;68011;37.386;-122.002;2023-03-05T00:48:04;101058.63;;;11.16;50.42
63652;BME280;68011;37.386;-122.002;2023-03-05T00:48:30;101061.31;;;11.24;50.22
63652;BME280;68011;37.386;-122.002;2023-03-05T00:48:56;101064.34;;;11.29;50.43
63652;BME280;68011;37.386;-122.002;2023-03-05T00:49:23;101060.97;;;11.27;49.84
63652;BME280;68011;37.386;-122.002;2023-03-05T00:49:49;101054.22;;;11.23;49.78
63652;BME280;68011;37.386;-122.002;2023-03-05T00:50:15;101067.06;;;11.37;49.79
63652;BME280;68011;37.386;-122.002;2023-03-05T00:50:41;101070.81;;;11.36;49.66
63652;BME280;68011;37.386;-122.002;2023-03-05T00:51:08;101066.25;;;11.37;49.50
63652;BME280;68011;37.386;-122.002;2023-03-05T00:51:34;101064.69;;;11.34;49.10
63652;BME280;68011;37.386;-122.002;2023-03-05T00:52:00;101053.19;;;11.24;49.43
63652;BME280;68011;37.386;-122.002;2023-03-05T00:52:26;101065.72;;;11.17;48.65
63652;BME280;68011;37.386;-122.002;2023-03-05T00:52:53;101063.19;;;11.15;49.45
63652;BME280;68011;37.386;-122.002;2023-03-05T00:53:20;101065.72;;;11.17;49.40
63652;BME280;68011;37.386;-122.002;2023-03-05T00:53:46;101067.09;;;11.21;49.27
63652;BME280;68011;37.386;-122.002;2023-03-05T00:54:12;101061.50;;;11.14;48.38
63652;BME280;68011;37.386;-122.002;2023-03-05T00:54:38;101068.25;;;11.10;48.67
63652;BME280;68011;37.386;-122.002;2023-03-05T00:55:05;101062.66;;;11.12;48.80
63652;BME280;68011;37.386;-122.002;2023-03-05T00:55:31;101063.00;;;11.08;49.06
63652;BME280;68011;37.386;-122.002;2023-03-05T00:55:58;101067.75;;;11.06;48.82
63652;BME280;68011;37.386;-122.002;2023-03-05T00:56:24;101068.41;;;11.08;49.22
63652;BME280;68011;37.386;-122.002;2023-03-05T00:56:50;101066.41;;;11.11;49.13
63652;BME280;68011;37.386;-122.002;2023-03-05T00:57:17;101068.09;;;11.12;49.56
63652;BME280;68011;37.386;-122.002;2023-03-05T00:57:43;101064.72;;;11.18;49.35
63652;BME280;68011;37.386;-122.002;2023-03-05T00:58:09;101065.06;;;11.23;49.58
63652;BME280;68011;37.386;-122.002;2023-03-05T00:58:36;101064.19;;;11.22;49.67
63652;BME280;68011;37.386;-122.002;2023-03-05T00:59:02;101070.97;;;11.26;49.69
63652;BME280;68011;37.386;-122.002;2023-03-05T00:59:28;101063.53;;;11.29;49.39
63652;BME280;68011;37.386;-122.002;2023-03-05T00:59:55;101063.03;;;11.25;48.82
63652;BME280;68011;37.386;-122.002;2023-03-05T01:00:21;101063.53;;;11.29;48.69
63652;BME280;68011;37.386;-122.002;2023-03-05T01:00:47;101067.41;;;11.34;48.51
63652;BME280;68011;37.386;-122.002;2023-03-05T01:01:15;101062.34;;;11.31;48.23
63652;BME280;68011;37.386;-122.002;2023-03-05T01:01:41;101064.03;;;11.32;48.22
63652;BME280;68011;37.386;-122.002;2023-03-05T01:02:07;101064.72;;;11.26;47.42
63652;BME280;68011;37.386;-122.002;2023-03-05T01:02:34;101061.69;;;11.21;47.76
63652;BME280;68011;37.386;-122.002;2023-03-05T01:03:00;101063.34;;;11.22;48.11
63652;BME280;68011;37.386;-122.002;2023-03-05T01:03:26;101070.81;;;11.20;47.87
63652;BME280;68011;37.386;-122.002;2023-03-05T01:03:52;101076.88;;;11.14;47.82
63652;BME280;68011;37.386;-122.002;2023-03-05T01:04:21;101077.25;;;11.11;48.03
63652;BME280;68011;37.386;-122.002;2023-03-05T01:04:47;101070.47;;;11.06;47.57
63652;BME280;68011;37.386;-122.002;2023-03-05T01:05:14;101079.06;;;11.02;47.73
63652;BME280;68011;37.386;-122.002;2023-03-05T01:05:40;101078.25;;;11.01;47.35
63652;BME280;68011;37.386;-122.002;2023-03-05T01:06:10;101068.59;;;10.99;47.00
63652;BME280;68011;37.386;-122.002;2023-03-05T01:06:36;101074.19;;;10.97;46.38
63652;BME280;68011;37.386;-122.002;2023-03-05T01:07:06;101073.16;;;10.98;46.59
63652;BME280;68011;37.386;-122.002;2023-03-05T01:07:33;101073.31;;;10.97;46.76
63652;BME280;68011;37.386;-122.002;2023-03-05T01:07:59;101076.19;;;11.03;46.98
63652;BME280;68011;37.386;-122.002;2023-03-05T01:08:25;101081.28;;;11.06;47.59
63652;BME280;68011;37.386;-122.002;2023-03-05T01:08:52;101075.88;;;11.06;47.79
63652;BME280;68011;37.386;-122.002;2023-03-05T01:09:18;101076.19;;;11.03;47.75
63652;BME280;68011;37.386;-122.002;2023-03-05T01:09:46;101073.50;;;11.12;47.79
63652;BME280;68011;37.386;-122.002;2023-03-05T01:10:13;101076.53;;;11.08;47.76
63652;BME280;68011;37.386;-122.002;2023-03-05T01:10:39;101075.53;;;11.10;48.63
63652;BME280;68011;37.386;-122.002;2023-03-05T01:11:06;101071.84;;;11.11;48.64
63652;BME280;68011;37.386;-122.002;2023-03-05T01:11:33;101072.16;;;11.07;48.31
63652;BME280;68011;37.386;-122.002;2023-03-05T01:11:59;101072.81;;;11.01;48.65
63652;BME280;68011;37.386;-122.002;2023-03-05T01:12:25;101072.50;;;11.04;48.53
63652;BME280;68011;37.386;-122.002;2023-03-05T01:12:55;101074.72;;;11.09;48.76
63652;BME280;68011;37.386;-122.002;2023-03-05T01:13:21;101078.59;;;11.06;49.27
63652;BME280;68011;37.386;-122.002;2023-03-05T01:13:47;101081.28;;;11.06;49.19
63652;BME280;68011;37.386;-122.002;2023-03-05T01:14:14;101080.97;;;11.10;49.13
63652;BME280;68011;37.386;-122.002;2023-03-05T01:14:40;101078.59;;;11.06;48.56
63652;BME280;68011;37.386;-122.002;2023-03-05T01:15:06;101081.47;;;11.05;48.52
63652;BME280;68011;37.386;-122.002;2023-03-05T01:15:33;101076.19;;;11.03;48.12
63652;BME280;68011;37.386;-122.002;2023-03-05T01:15:59;101081.63;;;11.03;48.33
63652;BME280;68011;37.386;-122.002;2023-03-05T01:16:26;101080.63;;;11.04;48.49
63652;BME280;68011;37.386;-122.002;2023-03-05T01:16:52;101082.31;;;10.97;47.97
63652;BME280;68011;37.386;-122.002;2023-03-05T01:17:18;101079.44;;;10.99;48.26
63652;BME280;68011;37.386;-122.002;2023-03-05T01:17:45;101083.66;;;11.01;48.47
63652;BME280;68011;37.386;-122.002;2023-03-05T01:18:11;101073.16;;;10.98;49.21
63652;BME280;68011;37.386;-122.002;2023-03-05T01:18:38;101096.88;;;11.04;49.23
63652;BME280;68011;37.386;-122.002;2023-03-05T01:19:04;101082.66;;;11.02;49.83
63652;BME280;68011;37.386;-122.002;2023-03-05T01:19:31;101098.56;;;10.97;49.59
63652;BME280;68011;37.386;-122.002;2023-03-05T01:19:57;101089.56;;;10.97;49.29
63652;BME280;68011;37.386;-122.002;2023-03-05T01:20:23;101094.81;;;10.98;49.51
63652;BME280;68011;37.386;-122.002;2023-03-05T01:20:50;101097.22;;;11.01;49.65
63652;BME280;68011;37.386;-122.002;2023-03-05T01:21:16;101070.44;;;10.82;49.01
63652;BME280;68011;37.386;-122.002;2023-03-05T01:21:42;101089.91;;;10.85;49.22
63652;BME280;68011;37.386;-122.002;2023-03-05T01:22:09;101095.66;;;10.82;49.68
63652;BME280;68011;37.386;-122.002;2023-03-05T01:22:35;101097.16;;;10.77;48.41
63652;BME280;68011;37.386;-122.002;2023-03-05T01:23:01;101092.75;;;10.76;48.81
63652;BME280;68011;37.386;-122.002;2023-03-05T01:23:27;101087.34;;;10.76;48.86
63652;BME280;68011;37.386;-122.002;2023-03-05T01:23:54;101087.69;;;10.81;48.74
63652;BME280;68011;37.386;-122.002;2023-03-05T01:24:20;101091.59;;;10.78;48.96
63652;BME280;68011;37.386;-122.002;2023-03-05T01:24:47;101090.72;;;10.78;48.54
63652;BME280;68011;37.386;-122.002;2023-03-05T01:25:14;101091.75;;;10.77;49.11
63652;BME280;68011;37.386;-122.002;2023-03-05T01:25:41;101084.94;;;10.73;48.51
63652;BME280;68011;37.386;-122.002;2023-03-05T01:26:08;101090.38;;;10.73;48.09
63652;BME280;68011;37.386;-122.002;2023-03-05T01:26:34;101087.84;;;10.79;48.67
63652;BME280;68011;37.386;-122.002;2023-03-05T01:27:00;101092.44;;;10.87;48.30
63652;BME280;68011;37.386;-122.002;2023-03-05T01:27:27;101090.75;;;10.86;48.85
63652;BME280;68011;37.386;-122.002;2023-03-05T01:27:53;101093.63;;;10.84;49.07
63652;BME280;68011;37.386;-122.002;2023-03-05T01:28:19;101089.91;;;10.85;49.21
63652;BME280;68011;37.386;-122.002;2023-03-05T01:28:46;101086.19;;;10.86;49.39
63652;BME280;68011;37.386;-122.002;2023-03-05T01:29:12;101089.75;;;10.87;49.68
63652;BME280;68011;37.386;-122.002;2023-03-05T01:29:39;101096.16;;;10.86;50.08
63652;BME280;68011;37.386;-122.002;2023-03-05T01:30:05;101092.44;;;10.87;49.35
63652;BME280;68011;37.386;-122.002;2023-03-05T01:30:35;101095.13;;;10.79;49.11
63652;BME280;68011;37.386;-122.002;2023-03-05T01:31:01;101094.47;;;10.77;48.99
63652;BME280;68011;37.386;-122.002;2023-03-05T01:31:31;101093.06;;;10.73;49.76
63652;BME280;68011;37.386;-122.002;2023-03-05T01:31:57;101097.16;;;10.77;49.94
63652;BME280;68011;37.386;-122.002;2023-03-05T01:32:24;101092.75;;;10.76;49.74
63652;BME280;68011;37.386;-122.002;2023-03-05T01:32:50;101096.50;;;10.75;50.34
63652;BME280;68011;37.386;-122.002;2023-03-05T01:33:16;101099.56;;;10.80;50.33
63652;BME280;68011;37.386;-122.002;2023-03-05T01:33:43;101105.28;;;10.77;50.57
63652;BME280;68011;37.386;-122.002;2023-03-05T01:34:09;101097.16;;;10.77;50.57
63652;BME280;68011;37.386;-122.002;2023-03-05T01:34:36;101097.69;;;10.80;50.92
63652;BME280;68011;37.386;-122.002;2023-03-05T01:35:04;101098.53;;;10.81;50.80
63652;BME280;68011;37.386;-122.002;2023-03-05T01:35:30;101095.47;;;10.76;50.06
63652;BME280;68011;37.386;-122.002;2023-03-05T01:35:56;101099.19;;;10.75;50.43
63652;BME280;68011;37.386;-122.002;2023-03-05T01:36:23;101090.72;;;10.78;50.67
63652;BME280;68011;37.386;-122.002;2023-03-05T01:36:50;101093.09;;;10.81;50.36
63652;BME280;68011;37.386;-122.002;2023-03-05T01:37:16;101095.97;;;10.79;50.81
63652;BME280;68011;37.386;-122.002;2023-03-05T01:37:42;101099.53;;;10.72;50.03
63652;BME280;68011;37.386;-122.002;2023-03-05T01:38:09;101099.13;;;10.58;49.53
63652;BME280;68011;37.386;-122.002;2023-03-05T01:38:35;101091.38;;;10.63;49.98
63652;BME280;68011;37.386;-122.002;2023-03-05T01:39:01;101096.63;;;10.65;50.02
63652;BME280;68011;37.386;-122.002;2023-03-05T01:39:27;101093.91;;;10.65;49.56
63652;BME280;68011;37.386;-122.002;2023-03-05T01:39:54;101091.56;;;10.70;50.04
63652;BME280;68011;37.386;-122.002;2023-03-05T01:40:24;101092.72;;;10.67;49.81
63652;BME280;68011;37.386;-122.002;2023-03-05T01:40:51;101099.00;;;10.68;50.38
63652;BME280;68011;37.386;-122.002;2023-03-05T01:41:18;101090.34;;;10.56;50.06
63652;BME280;68011;37.386;-122.002;2023-03-05T01:41:44;101087.31;;;10.59;50.28
63652;BME280;68011;37.386;-122.002;2023-03-05T01:42:10;101098.28;;;10.58;50.46
63652;BME280;68011;37.386;-122.002;2023-03-05T01:42:37;101095.75;;;10.56;50.61
63652;BME280;68011;37.386;-122.002;2023-03-05T01:43:39;101098.50;;;10.64;50.82
63652;BME280;68011;37.386;-122.002;2023-03-05T01:44:05;101097.09;;;10.60;50.44
63652;BME280;68011;37.386;-122.002;2023-03-05T01:44:33;101099.81;;;10.52;50.87
63652;BME280;68011;37.386;-122.002;2023-03-05T01:45:12;101092.84;;;10.49;50.27
63652;BME280;68011;37.386;-122.002;2023-03-05T01:46:42;101094.00;;;10.39;51.07
63652;BME280;68011;37.386;-122.002;2023-03-05T01:47:09;101096.03;;;10.37;51.64
63652;BME280;68011;37.386;-122.002;2023-03-05T01:47:36;101090.59;;;10.37;50.98
63652;BME280;68011;37.386;-122.002;2023-03-05T01:48:02;101089.91;;;10.35;51.31
63652;BME280;68011;37.386;-122.002;2023-03-05T01:48:28;101087.19;;;10.35;51.08
63652;BME280;68011;37.386;-122.002;2023-03-05T01:49:24;101089.94;;;10.43;51.26
63652;BME280;68011;37.386;-122.002;2023-03-05T01:49:52;101090.78;;;10.35;51.25
63652;BME280;68011;37.386;-122.002;2023-03-05T01:50:22;101090.06;;;10.33;51.67
63652;BME280;68011;37.386;-122.002;2023-03-05T01:50:50;101092.28;;;10.38;51.54
63652;BME280;68011;37.386;-122.002;2023-03-05T01:51:17;101087.72;;;10.38;51.87
63652;BME280;68011;37.386;-122.002;2023-03-05T01:51:53;101102.78;;;10.41;51.36
63652;BME280;68011;37.386;-122.002;2023-03-05T01:52:22;101097.53;;;10.39;51.77
63652;BME280;68011;37.386;-122.002;2023-03-05T01:53:03;101108.84;;;10.35;51.69
63652;BME280;68011;37.386;-122.002;2023-03-05T01:53:30;101093.41;;;10.27;52.03
63652;BME280;68011;37.386;-122.002;2023-03-05T01:53:58;101102.16;;;10.21;52.02
63652;BME280;68011;37.386;-122.002;2023-03-05T01:54:38;101101.69;;;10.25;51.99
63652;BME280;68011;37.386;-122.002;2023-03-05T01:55:09;101094.72;;;10.23;52.43
63652;BME280;68011;37.386;-122.002;2023-03-05T01:55:36;101096.91;;;10.19;52.10
63652;BME280;68011;37.386;-122.002;2023-03-05T01:56:03;101088.41;;;10.14;52.65
63652;BME280;68011;37.386;-122.002;2023-03-05T01:56:30;101091.47;;;10.11;52.23
63652;BME280;68011;37.386;-122.002;2023-03-05T01:56:58;101095.84;;;10.12;52.19
63652;BME280;68011;37.386;-122.002;2023-03-05T01:57:36;101099.75;;;10.09;52.23
63652;BME280;68011;37.386;-122.002;2023-03-05T01:58:09;101101.59;;;10.09;52.23
63652;BME280;68011;37.386;-122.002;2023-03-05T01:58:37;101107.72;;;10.11;52.39
63652;BME280;68011;37.386;-122.002;2023-03-05T01:59:06;101105.69;;;10.13;52.24
63652;BME280;68011;37.386;-122.002;2023-03-05T01:59:33;101099.25;;;10.14;52.00
63652;BME280;68011;37.386;-122.002;2023-03-05T02:00:07;101096.88;;;10.11;52.27
63652;BME280;68011;37.386;-122.002;2023-03-05T02:00:38;101096.84;;;10.03;51.90
63652;BME280;68011;37.386;-122.002;2023-03-05T02:01:08;101091.06;;;9.98;52.34
63652;BME280;68011;37.386;-122.002;2023-03-05T02:01:41;101103.28;;;10.10;52.09
63652;BME280;68011;37.386;-122.002;2023-03-05T02:02:08;101104.13;;;10.10;52.34
63652;BME280;68011;37.386;-122.002;2023-03-05T02:02:35;101098.56;;;10.12;51.96
63652;BME280;68011;37.386;-122.002;2023-03-05T02:03:04;101101.94;;;10.14;52.24
63652;BME280;68011;37.386;-122.002;2023-03-05T02:03:32;101105.38;;;10.16;51.83
63652;BME280;68011;37.386;-122.002;2023-03-05T02:03:59;101105.03;;;10.19;51.94
63652;BME280;68011;37.386;-122.002;2023-03-05T02:04:31;101112.13;;;10.20;52.01
63652;BME280;68011;37.386;-122.002;2023-03-05T02:05:10;101106.84;;;10.10;51.96
63652;BME280;68011;37.386;-122.002;2023-03-05T02:05:39;101111.41;;;10.10;52.38
63652;BME280;68011;37.386;-122.002;2023-03-05T02:06:08;101101.94;;;10.06;52.32
63652;BME280;68011;37.386;-122.002;2023-03-05T02:06:34;101113.44;;;10.08;52.46
63652;BME280;68011;37.386;-122.002;2023-03-05T02:07:01;101098.34;;;10.05;52.78
63652;BME280;68011;37.386;-122.002;2023-03-05T02:07:30;101106.00;;;10.10;52.57
63652;BME280;68011;37.386;-122.002;2023-03-05T02:07:59;101104.81;;;10.12;52.16
63652;BME280;68011;37.386;-122.002;2023-03-05T02:08:25;101096.34;;;10.07;52.82
63652;BME280;68011;37.386;-122.002;2023-03-05T02:08:52;101109.53;;;10.10;52.74
63652;BME280;68011;37.386;-122.002;2023-03-05T02:09:19;101106.31;;;10.07;52.91
63652;BME280;68011;37.386;-122.002;2023-03-05T02:09:48;101100.16;;;9.97;53.19
63652;BME280;68011;37.386;-122.002;2023-03-05T02:10:20;101103.91;;;9.95;53.10
63652;BME280;68011;37.386;-122.002;2023-03-05T02:10:54;101101.88;;;9.98;52.63
63652;BME280;68011;37.386;-122.002;2023-03-05T02:11:25;101103.25;;;10.02;52.57
63652;BME280;68011;37.386;-122.002;2023-03-05T02:11:51;101106.63;;;10.04;52.95
63652;BME280;68011;37.386;-122.002;2023-03-05T02:12:17;101113.75;;;10.05;52.59
63652;BME280;68011;37.386;-122.002;2023-03-05T02:12:44;101110.03;;;10.06;52.53
63652;BME280;68011;37.386;-122.002;2023-03-05T02:13:14;101104.25;;;10.01;52.64
63652;BME280;68011;37.386;-122.002;2023-03-05T02:13:42;101111.50;;;10.00;53.14
63652;BME280;68011;37.386;-122.002;2023-03-05T02:14:08;101111.84;;;9.97;53.49
63652;BME280;68011;37.386;-122.002;2023-03-05T02:14:35;101113.53;;;9.98;53.70
63652;BME280;68011;37.386;-122.002;2023-03-05T02:15:02;101102.19;;;9.94;53.60
63652;BME280;68011;37.386;-122.002;2023-03-05T02:15:28;101107.28;;;9.98;53.81
63652;BME280;68011;37.386;-122.002;2023-03-05T02:15:57;101112.00;;;9.95;53.58
63652;BME280;68011;37.386;-122.002;2023-03-05T02:16:25;101104.84;;;9.86;53.85
63652;BME280;68011;37.386;-122.002;2023-03-05T02:16:51;101102.50;;;9.91;53.73
63652;BME280;68011;37.386;-122.002;2023-03-05T02:17:17;101112.69;;;9.98;53.46
63652;BME280;68011;37.386;-122.002;2023-03-05T02:17:44;101113.00;;;9.94;53.98
63652;BME280;68011;37.386;-122.002;2023-03-05T02:18:10;101110.25;;;9.86;54.12
63652;BME280;68011;37.386;-122.002;2023-03-05T02:18:36;101119.69;;;9.82;54.21
63652;BME280;68011;37.386;-122.002;2023-03-05T02:19:08;101122.41;;;9.82;53.83